sensor_id;sensor_type;location;lat;lon;timestamp;temperature;humidity
46590;DHT22;32313;48.722;9.362;2023-06-10T00:01:38;13.60;99.90
46590;DHT22;32313;48.722;9.362;2023-06-10T00:04:04;13.60;99.90
46590;DHT22;32313;48.722;9.362;2023-06-10T00:06:30;13.50;99.90
46590;DHT22;32313;48.722;9.362;2023-06-10T00:09:02;13.50;99.90
46590;DHT22;32313;48.722;9.362;2023-06-10T00:11:33;13.40;99.90
46590;DHT22;32313;48.722;9.362;2023-06-10T00:13:59;13.40;99.90
46590;DHT22;32313;48.722;9.362;2023-06-10T00:16:25;13.40;99.90
46590;DHT22;32313;48.722;9.362;2023-06-10T00:18:51;13.40;99.90
46590;DHT22;32313;48.722;9.362;2023-06-10T00:21:17;13.30;99.90
46590;DHT22;32313;48.722;9.362;2023-06-10T00:23:43;13.40;99.90
46590;DHT22;32313;48.722;9.362;2023-06-10T00:26:09;13.40;99.90
46590;DHT22;32313;48.722;9.362;2023-06-10T00:28:35;13.40;99.90
46590;DHT22;32313;48.722;9.362;2023-06-10T00:31:01;13.30;99.90
46590;DHT22;32313;48.722;9.362;2023-06-10T00:33:27;13.20;99.90
46590;DHT22;32313;48.722;9.362;2023-06-10T00:35:55;13.20;99.90
46590;DHT22;32313;48.722;9.362;2023-06-10T00:38:20;13.10;99.90
46590;DHT22;32313;48.722;9.362;2023-06-10T00:40:46;13.10;99.90
46590;DHT22;32313;48.722;9.362;2023-06-10T00:43:12;13.00;99.90
46590;DHT22;32313;48.722;9.362;2023-06-10T00:45:38;13.00;99.90
46590;DHT22;32313;48.722;9.362;2023-06-10T00:48:05;12.90;99.90
46590;DHT22;32313;48.722;9.362;2023-06-10T00:50:31;12.90;99.90
46590;DHT22;32313;48.722;9.362;2023-06-10T00:52:59;12.90;99.90
46590;DHT22;32313;48.722;9.362;2023-06-10T00:55:26;12.80;99.90
46590;DHT22;32313;48.722;9.362;2023-06-10T00:57:53;12.80;99.90
46590;DHT22;32313;48.722;9.362;2023-06-10T01:00:19;12.80;99.90
46590;DHT22;32313;48.722;9.362;2023-06-10T01:02:46;12.80;99.90
46590;DHT22;32313;48.722;9.362;2023-06-10T01:05:11;12.70;99.90
46590;DHT22;32313;48.722;9.362;2023-06-10T01:07:50;12.70;99.90
46590;DHT22;32313;48.722;9.362;2023-06-10T01:10:36;12.70;99.90
46590;DHT22;32313;48.722;9.362;2023-06-10T01:13:06;12.70;99.90
46590;DHT22;32313;48.722;9.362;2023-06-10T01:15:35;12.70;99.90
46590;DHT22;32313;48.722;9.362;2023-06-10T01:18:07;12.70;99.90
46590;DHT22;32313;48.722;9.362;2023-06-10T01:20:41;12.70;99.90
46590;DHT22;32313;48.722;9.362;2023-06-10T01:23:12;12.60;99.90
46590;DHT22;32313;48.722;9.362;2023-06-10T01:25:39;12.60;99.90
46590;DHT22;32313;48.722;9.362;2023-06-10T01:33:12;12.60;99.90
46590;DHT22;32313;48.722;9.362;2023-06-10T01:35:43;12.60;99.90
46590;DHT22;32313;48.722;9.362;2023-06-10T01:38:11;12.60;99.90
46590;DHT22;32313;48.722;9.362;2023-06-10T01:40:38;12.60;99.90
46590;DHT22;32313;48.722;9.362;2023-06-10T01:43:04;12.60;99.90
46590;DHT22;32313;48.722;9.362;2023-06-10T01:45:30;12.60;99.90
46590;DHT22;32313;48.722;9.362;2023-06-10T01:47:56;12.50;99.90
46590;DHT22;32313;48.722;9.362;2023-06-10T01:50:22;12.40;99.90
46590;DHT22;32313;48.722;9.362;2023-06-10T01:52:48;12.30;99.90
46590;DHT22;32313;48.722;9.362;2023-06-10T01:55:14;12.20;99.90
46590;DHT22;32313;48.722;9.362;2023-06-10T01:57:39;12.20;99.90
46590;DHT22;32313;48.722;9.362;2023-06-10T02:00:06;12.20;99.90
46590;DHT22;32313;48.722;9.362;2023-06-10T02:02:40;12.20;99.90
46590;DHT22;32313;48.722;9.362;2023-06-10T02:05:06;12.10;99.90
46590;DHT22;32313;48.722;9.362;2023-06-10T02:07:32;12.10;99.90
46590;DHT22;32313;48.722;9.362;2023-06-10T02:09:58;12.10;99.90
46590;DHT22;32313;48.722;9.362;2023-06-10T02:12:24;12.10;99.90
46590;DHT22;32313;48.722;9.362;2023-06-10T02:14:50;12.10;99.90
46590;DHT22;32313;48.722;9.362;2023-06-10T02:17:17;12.10;99.90
46590;DHT22;32313;48.722;9.362;2023-06-10T02:19:43;12.00;99.90
46590;DHT22;32313;48.722;9.362;2023-06-10T02:22:09;12.00;99.90
46590;DHT22;32313;48.722;9.362;2023-06-10T02:24:36;11.90;99.90
46590;DHT22;32313;48.722;9.362;2023-06-10T02:27:04;11.90;99.90
46590;DHT22;32313;48.722;9.362;2023-06-10T02:29:34;11.90;99.90
46590;DHT22;32313;48.722;9.362;2023-06-10T02:32:02;11.80;99.90
46590;DHT22;32313;48.722;9.362;2023-06-10T02:34:28;11.80;99.90
46590;DHT22;32313;48.722;9.362;2023-06-10T02:36:55;11.80;99.90
46590;DHT22;32313;48.722;9.362;2023-06-10T02:39:22;11.90;99.90
46590;DHT22;32313;48.722;9.362;2023-06-10T02:41:48;11.80;99.90
46590;DHT22;32313;48.722;9.362;2023-06-10T02:44:15;11.80;99.90
46590;DHT22;32313;48.722;9.362;2023-06-10T02:46:42;11.80;99.90
46590;DHT22;32313;48.722;9.362;2023-06-10T02:49:08;11.80;99.90
46590;DHT22;32313;48.722;9.362;2023-06-10T02:51:35;11.80;99.90
46590;DHT22;32313;48.722;9.362;2023-06-10T02:54:02;11.80;99.90
46590;DHT22;32313;48.722;9.362;2023-06-10T02:56:29;11.60;99.90
46590;DHT22;32313;48.722;9.362;2023-06-10T02:58:59;11.60;99.90
46590;DHT22;32313;48.722;9.362;2023-06-10T03:01:26;11.50;99.90
46590;DHT22;32313;48.722;9.362;2023-06-10T03:03:59;11.40;99.90
46590;DHT22;32313;48.722;9.362;2023-06-10T03:06:25;11.40;99.90
46590;DHT22;32313;48.722;9.362;2023-06-10T03:08:56;11.30;99.90
46590;DHT22;32313;48.722;9.362;2023-06-10T03:11:22;11.30;99.90
46590;DHT22;32313;48.722;9.362;2023-06-10T03:13:49;11.20;99.90
46590;DHT22;32313;48.722;9.362;2023-06-10T03:16:17;11.20;99.90
46590;DHT22;32313;48.722;9.362;2023-06-10T03:18:45;11.10;99.90
46590;DHT22;32313;48.722;9.362;2023-06-10T03:21:11;11.10;99.90
46590;DHT22;32313;48.722;9.362;2023-06-10T03:23:37;11.10;99.90
46590;DHT22;32313;48.722;9.362;2023-06-10T03:26:04;11.20;99.90
46590;DHT22;32313;48.722;9.362;2023-06-10T03:28:31;11.30;99.90
46590;DHT22;32313;48.722;9.362;2023-06-10T03:31:00;11.30;99.90
46590;DHT22;32313;48.722;9.362;2023-06-10T03:33:29;11.40;99.90
46590;DHT22;32313;48.722;9.362;2023-06-10T03:35:55;11.40;99.90
46590;DHT22;32313;48.722;9.362;2023-06-10T03:38:23;11.40;99.90
46590;DHT22;32313;48.722;9.362;2023-06-10T03:40:49;11.40;99.90
46590;DHT22;32313;48.722;9.362;2023-06-10T03:43:14;11.40;99.90
46590;DHT22;32313;48.722;9.362;2023-06-10T03:45:41;11.40;99.90
46590;DHT22;32313;48.722;9.362;2023-06-10T03:48:08;11.40;99.90
46590;DHT22;32313;48.722;9.362;2023-06-10T03:50:43;11.30;99.90
46590;DHT22;32313;48.722;9.362;2023-06-10T03:53:09;11.40;99.90
46590;DHT22;32313;48.722;9.362;2023-06-10T03:55:37;11.40;99.90
46590;DHT22;32313;48.722;9.362;2023-06-10T03:58:04;11.40;99.90
46590;DHT22;32313;48.722;9.362;2023-06-10T04:00:30;11.50;99.90
46590;DHT22;32313;48.722;9.362;2023-06-10T04:02:55;11.50;99.90
46590;DHT22;32313;48.722;9.362;2023-06-10T04:05:35;11.50;99.90
46590;DHT22;32313;48.722;9.362;2023-06-10T04:08:01;11.60;99.90
46590;DHT22;32313;48.722;9.362;2023-06-10T04:10:27;11.60;99.90
46590;DHT22;32313;48.722;9.362;2023-06-10T04:12:54;11.70;99.90
46590;DHT22;32313;48.722;9.362;2023-06-10T04:15:20;11.70;99.90
46590;DHT22;32313;48.722;9.362;2023-06-10T04:17:47;11.80;99.90
46590;DHT22;32313;48.722;9.362;2023-06-10T04:20:17;11.90;99.90
46590;DHT22;32313;48.722;9.362;2023-06-10T04:22:46;12.00;99.90
46590;DHT22;32313;48.722;9.362;2023-06-10T04:25:12;12.00;99.90
46590;DHT22;32313;48.722;9.362;2023-06-10T04:27:39;12.00;99.90
46590;DHT22;32313;48.722;9.362;2023-06-10T04:30:05;12.10;99.90
46590;DHT22;32313;48.722;9.362;2023-06-10T04:32:33;12.10;99.90
46590;DHT22;32313;48.722;9.362;2023-06-10T04:35:00;12.20;99.90
46590;DHT22;32313;48.722;9.362;2023-06-10T04:37:26;12.30;99.90
46590;DHT22;32313;48.722;9.362;2023-06-10T04:39:52;12.40;99.90
46590;DHT22;32313;48.722;9.362;2023-06-10T04:42:18;12.50;99.90
46590;DHT22;32313;48.722;9.362;2023-06-10T04:44:44;12.60;99.90
46590;DHT22;32313;48.722;9.362;2023-06-10T04:47:10;12.70;99.90
46590;DHT22;32313;48.722;9.362;2023-06-10T04:49:35;12.80;99.90
46590;DHT22;32313;48.722;9.362;2023-06-10T04:52:02;12.90;99.90
46590;DHT22;32313;48.722;9.362;2023-06-10T04:54:33;13.00;99.90
46590;DHT22;32313;48.722;9.362;2023-06-10T04:56:59;13.10;99.90
46590;DHT22;32313;48.722;9.362;2023-06-10T04:59:25;13.20;99.90
46590;DHT22;32313;48.722;9.362;2023-06-10T05:01:52;13.30;99.90
46590;DHT22;32313;48.722;9.362;2023-06-10T05:04:17;13.50;99.90
46590;DHT22;32313;48.722;9.362;2023-06-10T05:06:43;13.60;99.90
46590;DHT22;32313;48.722;9.362;2023-06-10T05:09:09;13.80;99.90
46590;DHT22;32313;48.722;9.362;2023-06-10T05:11:35;13.90;99.90
46590;DHT22;32313;48.722;9.362;2023-06-10T05:14:01;14.00;99.90
46590;DHT22;32313;48.722;9.362;2023-06-10T05:16:27;14.10;99.90
46590;DHT22;32313;48.722;9.362;2023-06-10T05:18:53;14.20;99.90
46590;DHT22;32313;48.722;9.362;2023-06-10T05:21:19;14.30;99.90
46590;DHT22;32313;48.722;9.362;2023-06-10T05:23:45;14.40;99.90
46590;DHT22;32313;48.722;9.362;2023-06-10T05:26:11;14.60;99.90
46590;DHT22;32313;48.722;9.362;2023-06-10T05:28:37;14.60;99.90
46590;DHT22;32313;48.722;9.362;2023-06-10T05:31:03;14.80;99.90
46590;DHT22;32313;48.722;9.362;2023-06-10T05:33:28;15.00;99.90
46590;DHT22;32313;48.722;9.362;2023-06-10T05:35:54;15.10;99.90
46590;DHT22;32313;48.722;9.362;2023-06-10T05:38:20;15.20;99.90
46590;DHT22;32313;48.722;9.362;2023-06-10T05:40:46;15.30;99.90
46590;DHT22;32313;48.722;9.362;2023-06-10T05:43:12;15.40;99.90
46590;DHT22;32313;48.722;9.362;2023-06-10T05:45:38;15.60;99.90
46590;DHT22;32313;48.722;9.362;2023-06-10T05:48:05;15.80;99.90
46590;DHT22;32313;48.722;9.362;2023-06-10T05:50:31;15.90;99.90
46590;DHT22;32313;48.722;9.362;2023-06-10T05:53:03;16.10;99.90
46590;DHT22;32313;48.722;9.362;2023-06-10T05:55:29;16.30;99.90
46590;DHT22;32313;48.722;9.362;2023-06-10T05:57:59;16.50;99.90
46590;DHT22;32313;48.722;9.362;2023-06-10T06:00:25;16.60;99.90
46590;DHT22;32313;48.722;9.362;2023-06-10T06:02:52;16.80;99.90
46590;DHT22;32313;48.722;9.362;2023-06-10T06:05:19;16.90;99.90
46590;DHT22;32313;48.722;9.362;2023-06-10T06:07:45;17.10;99.90
46590;DHT22;32313;48.722;9.362;2023-06-10T06:10:11;17.30;99.90
46590;DHT22;32313;48.722;9.362;2023-06-10T06:12:37;17.40;99.90
46590;DHT22;32313;48.722;9.362;2023-06-10T06:15:03;17.50;99.90
46590;DHT22;32313;48.722;9.362;2023-06-10T06:17:29;17.70;99.90
46590;DHT22;32313;48.722;9.362;2023-06-10T06:19:55;17.70;99.90
46590;DHT22;32313;48.722;9.362;2023-06-10T06:22:20;18.00;99.90
46590;DHT22;32313;48.722;9.362;2023-06-10T06:24:47;18.30;99.90
46590;DHT22;32313;48.722;9.362;2023-06-10T06:27:15;18.50;99.90
46590;DHT22;32313;48.722;9.362;2023-06-10T06:29:41;18.70;99.90
46590;DHT22;32313;48.722;9.362;2023-06-10T06:32:07;18.90;99.90
46590;DHT22;32313;48.722;9.362;2023-06-10T06:34:32;19.00;99.90
46590;DHT22;32313;48.722;9.362;2023-06-10T06:36:59;19.20;99.90
46590;DHT22;32313;48.722;9.362;2023-06-10T06:39:26;19.40;99.90
46590;DHT22;32313;48.722;9.362;2023-06-10T06:41:52;19.70;99.90
46590;DHT22;32313;48.722;9.362;2023-06-10T06:44:25;20.60;99.90
46590;DHT22;32313;48.722;9.362;2023-06-10T06:46:52;21.60;99.90
46590;DHT22;32313;48.722;9.362;2023-06-10T06:49:18;22.30;99.90
46590;DHT22;32313;48.722;9.362;2023-06-10T06:51:44;23.10;99.90
46590;DHT22;32313;48.722;9.362;2023-06-10T06:54:09;23.60;99.90
46590;DHT22;32313;48.722;9.362;2023-06-10T06:56:36;24.10;99.90
46590;DHT22;32313;48.722;9.362;2023-06-10T06:59:03;24.40;99.90
46590;DHT22;32313;48.722;9.362;2023-06-10T07:01:30;24.80;99.90
46590;DHT22;32313;48.722;9.362;2023-06-10T07:03:56;25.20;99.90
46590;DHT22;32313;48.722;9.362;2023-06-10T07:06:21;25.30;99.90
46590;DHT22;32313;48.722;9.362;2023-06-10T07:08:49;25.50;99.90
46590;DHT22;32313;48.722;9.362;2023-06-10T07:11:15;25.80;99.90
46590;DHT22;32313;48.722;9.362;2023-06-10T07:13:43;26.30;99.90
46590;DHT22;32313;48.722;9.362;2023-06-10T07:16:08;26.80;99.90
46590;DHT22;32313;48.722;9.362;2023-06-10T07:18:34;27.10;99.90
46590;DHT22;32313;48.722;9.362;2023-06-10T07:21:00;27.00;99.90
46590;DHT22;32313;48.722;9.362;2023-06-10T07:23:26;27.10;99.90
46590;DHT22;32313;48.722;9.362;2023-06-10T07:25:52;27.50;99.90
46590;DHT22;32313;48.722;9.362;2023-06-10T07:28:18;27.30;99.90
46590;DHT22;32313;48.722;9.362;2023-06-10T07:30:44;27.10;99.90
46590;DHT22;32313;48.722;9.362;2023-06-10T07:33:09;27.00;98.90
46590;DHT22;32313;48.722;9.362;2023-06-10T07:35:36;26.80;98.90
46590;DHT22;32313;48.722;9.362;2023-06-10T07:38:02;27.00;98.80
46590;DHT22;32313;48.722;9.362;2023-06-10T07:40:28;26.90;98.30
46590;DHT22;32313;48.722;9.362;2023-06-10T07:42:55;26.90;97.50
46590;DHT22;32313;48.722;9.362;2023-06-10T07:45:21;26.80;97.50
46590;DHT22;32313;48.722;9.362;2023-06-10T07:47:46;27.00;96.80
46590;DHT22;32313;48.722;9.362;2023-06-10T07:50:12;27.00;96.60
46590;DHT22;32313;48.722;9.362;2023-06-10T07:52:38;26.90;96.30
46590;DHT22;32313;48.722;9.362;2023-06-10T07:55:04;27.00;96.20
46590;DHT22;32313;48.722;9.362;2023-06-10T07:57:30;27.20;95.70
46590;DHT22;32313;48.722;9.362;2023-06-10T08:00:00;27.60;95.60
46590;DHT22;32313;48.722;9.362;2023-06-10T08:02:38;27.70;95.00
46590;DHT22;32313;48.722;9.362;2023-06-10T08:05:04;28.30;94.30
46590;DHT22;32313;48.722;9.362;2023-06-10T08:07:30;28.50;93.40
46590;DHT22;32313;48.722;9.362;2023-06-10T08:09:57;28.60;92.80
46590;DHT22;32313;48.722;9.362;2023-06-10T08:12:23;28.60;92.70
46590;DHT22;32313;48.722;9.362;2023-06-10T08:14:49;28.90;91.90
46590;DHT22;32313;48.722;9.362;2023-06-10T08:17:14;28.90;90.90
46590;DHT22;32313;48.722;9.362;2023-06-10T08:19:40;29.10;90.80
46590;DHT22;32313;48.722;9.362;2023-06-10T08:22:06;29.20;90.70
46590;DHT22;32313;48.722;9.362;2023-06-10T08:24:32;29.10;88.90
46590;DHT22;32313;48.722;9.362;2023-06-10T08:26:58;29.10;89.70
46590;DHT22;32313;48.722;9.362;2023-06-10T08:29:24;29.80;89.90
46590;DHT22;32313;48.722;9.362;2023-06-10T08:31:50;30.60;87.70
46590;DHT22;32313;48.722;9.362;2023-06-10T08:34:16;31.10;84.00
46590;DHT22;32313;48.722;9.362;2023-06-10T08:36:43;31.30;82.40
46590;DHT22;32313;48.722;9.362;2023-06-10T08:39:09;31.10;80.90
46590;DHT22;32313;48.722;9.362;2023-06-10T08:41:39;30.70;81.40
46590;DHT22;32313;48.722;9.362;2023-06-10T08:44:14;30.80;80.40
46590;DHT22;32313;48.722;9.362;2023-06-10T08:46:45;30.30;78.60
46590;DHT22;32313;48.722;9.362;2023-06-10T08:49:17;30.30;79.40
46590;DHT22;32313;48.722;9.362;2023-06-10T08:51:43;30.40;79.50
46590;DHT22;32313;48.722;9.362;2023-06-10T08:54:20;30.30;79.40
46590;DHT22;32313;48.722;9.362;2023-06-10T08:56:49;30.70;78.10
46590;DHT22;32313;48.722;9.362;2023-06-10T08:59:16;30.80;77.80
46590;DHT22;32313;48.722;9.362;2023-06-10T09:01:43;31.10;77.40
46590;DHT22;32313;48.722;9.362;2023-06-10T09:04:10;31.60;75.50
46590;DHT22;32313;48.722;9.362;2023-06-10T09:06:36;32.00;73.70
46590;DHT22;32313;48.722;9.362;2023-06-10T09:09:05;31.90;72.90
46590;DHT22;32313;48.722;9.362;2023-06-10T09:11:31;31.20;73.30
46590;DHT22;32313;48.722;9.362;2023-06-10T09:13:57;30.90;74.00
46590;DHT22;32313;48.722;9.362;2023-06-10T09:16:25;30.80;74.40
46590;DHT22;32313;48.722;9.362;2023-06-10T09:18:51;31.00;74.60
46590;DHT22;32313;48.722;9.362;2023-06-10T09:21:24;30.60;74.00
46590;DHT22;32313;48.722;9.362;2023-06-10T09:23:50;29.70;75.10
46590;DHT22;32313;48.722;9.362;2023-06-10T09:26:17;28.80;78.40
46590;DHT22;32313;48.722;9.362;2023-06-10T09:28:49;29.20;77.90
46590;DHT22;32313;48.722;9.362;2023-06-10T09:31:16;29.20;76.00
46590;DHT22;32313;48.722;9.362;2023-06-10T09:33:45;29.20;75.90
46590;DHT22;32313;48.722;9.362;2023-06-10T09:36:11;29.70;76.90
46590;DHT22;32313;48.722;9.362;2023-06-10T09:38:37;30.90;73.90
46590;DHT22;32313;48.722;9.362;2023-06-10T09:41:03;31.20;72.70
46590;DHT22;32313;48.722;9.362;2023-06-10T09:43:43;31.30;72.30
46590;DHT22;32313;48.722;9.362;2023-06-10T09:46:16;32.10;71.20
46590;DHT22;32313;48.722;9.362;2023-06-10T09:48:45;32.40;69.30
46590;DHT22;32313;48.722;9.362;2023-06-10T09:51:15;32.10;70.40
46590;DHT22;32313;48.722;9.362;2023-06-10T09:53:42;31.90;69.60
46590;DHT22;32313;48.722;9.362;2023-06-10T09:56:08;32.00;67.90
46590;DHT22;32313;48.722;9.362;2023-06-10T09:58:38;32.40;67.40
46590;DHT22;32313;48.722;9.362;2023-06-10T10:01:08;32.50;67.10
46590;DHT22;32313;48.722;9.362;2023-06-10T10:03:46;32.90;65.20
46590;DHT22;32313;48.722;9.362;2023-06-10T10:06:13;33.50;65.10
46590;DHT22;32313;48.722;9.362;2023-06-10T10:08:39;34.00;64.40
46590;DHT22;32313;48.722;9.362;2023-06-10T10:11:05;34.50;62.80
46590;DHT22;32313;48.722;9.362;2023-06-10T10:13:34;33.90;62.50
46590;DHT22;32313;48.722;9.362;2023-06-10T10:16:03;33.40;63.30
46590;DHT22;32313;48.722;9.362;2023-06-10T10:18:31;32.30;64.20
46590;DHT22;32313;48.722;9.362;2023-06-10T10:21:00;31.10;66.20
46590;DHT22;32313;48.722;9.362;2023-06-10T10:23:36;30.30;68.10
46590;DHT22;32313;48.722;9.362;2023-06-10T10:26:07;30.20;68.60
46590;DHT22;32313;48.722;9.362;2023-06-10T10:28:44;30.50;67.80
46590;DHT22;32313;48.722;9.362;2023-06-10T10:31:12;31.20;67.50
46590;DHT22;32313;48.722;9.362;2023-06-10T10:33:54;31.80;64.70
46590;DHT22;32313;48.722;9.362;2023-06-10T10:36:22;32.60;65.40
46590;DHT22;32313;48.722;9.362;2023-06-10T10:38:48;33.30;63.40
46590;DHT22;32313;48.722;9.362;2023-06-10T10:41:15;33.20;62.60
46590;DHT22;32313;48.722;9.362;2023-06-10T10:43:43;32.40;61.90
46590;DHT22;32313;48.722;9.362;2023-06-10T10:46:14;31.60;62.80
46590;DHT22;32313;48.722;9.362;2023-06-10T10:48:41;31.70;63.20
46590;DHT22;32313;48.722;9.362;2023-06-10T10:51:08;32.20;61.90
46590;DHT22;32313;48.722;9.362;2023-06-10T10:53:37;32.00;62.60
46590;DHT22;32313;48.722;9.362;2023-06-10T10:56:08;31.60;62.60
46590;DHT22;32313;48.722;9.362;2023-06-10T10:58:34;31.60;61.50
46590;DHT22;32313;48.722;9.362;2023-06-10T11:01:13;32.10;61.70
46590;DHT22;32313;48.722;9.362;2023-06-10T11:03:46;32.90;59.40
46590;DHT22;32313;48.722;9.362;2023-06-10T11:06:17;33.40;57.00
46590;DHT22;32313;48.722;9.362;2023-06-10T11:11:24;32.60;58.90
46590;DHT22;32313;48.722;9.362;2023-06-10T11:16:28;31.30;60.40
46590;DHT22;32313;48.722;9.362;2023-06-10T11:18:55;31.10;62.00
46590;DHT22;32313;48.722;9.362;2023-06-10T11:21:23;31.60;61.50
46590;DHT22;32313;48.722;9.362;2023-06-10T11:23:50;32.80;60.60
46590;DHT22;32313;48.722;9.362;2023-06-10T11:33:55;34.80;55.00
46590;DHT22;32313;48.722;9.362;2023-06-10T11:36:25;34.70;54.60
46590;DHT22;32313;48.722;9.362;2023-06-10T11:39:01;34.60;54.70
46590;DHT22;32313;48.722;9.362;2023-06-10T11:41:29;34.20;55.40
46590;DHT22;32313;48.722;9.362;2023-06-10T11:43:57;34.00;55.70
46590;DHT22;32313;48.722;9.362;2023-06-10T11:46:26;34.50;53.80
46590;DHT22;32313;48.722;9.362;2023-06-10T11:48:54;34.10;53.60
46590;DHT22;32313;48.722;9.362;2023-06-10T11:51:20;33.80;54.40
46590;DHT22;32313;48.722;9.362;2023-06-10T11:53:47;33.40;55.10
46590;DHT22;32313;48.722;9.362;2023-06-10T11:56:19;32.70;56.10
46590;DHT22;32313;48.722;9.362;2023-06-10T11:58:45;32.50;57.80
46590;DHT22;32313;48.722;9.362;2023-06-10T12:01:11;33.30;56.60
46590;DHT22;32313;48.722;9.362;2023-06-10T12:03:37;34.40;55.90
46590;DHT22;32313;48.722;9.362;2023-06-10T12:06:07;35.40;53.90
46590;DHT22;32313;48.722;9.362;2023-06-10T12:08:33;36.20;53.30
46590;DHT22;32313;48.722;9.362;2023-06-10T12:10:59;36.60;51.50
46590;DHT22;32313;48.722;9.362;2023-06-10T12:13:28;36.70;52.50
46590;DHT22;32313;48.722;9.362;2023-06-10T12:15:54;36.50;51.90
46590;DHT22;32313;48.722;9.362;2023-06-10T12:18:22;35.90;51.90
46590;DHT22;32313;48.722;9.362;2023-06-10T12:20:49;35.40;52.90
46590;DHT22;32313;48.722;9.362;2023-06-10T12:23:17;35.10;52.20
46590;DHT22;32313;48.722;9.362;2023-06-10T12:25:50;34.40;54.00
46590;DHT22;32313;48.722;9.362;2023-06-10T12:28:17;34.50;54.20
46590;DHT22;32313;48.722;9.362;2023-06-10T12:30:46;34.90;53.80
46590;DHT22;32313;48.722;9.362;2023-06-10T12:33:21;34.10;53.00
46590;DHT22;32313;48.722;9.362;2023-06-10T12:35:52;33.00;55.20
46590;DHT22;32313;48.722;9.362;2023-06-10T12:38:25;32.30;56.80
46590;DHT22;32313;48.722;9.362;2023-06-10T12:40:53;32.00;56.30
46590;DHT22;32313;48.722;9.362;2023-06-10T12:43:25;32.10;56.70
46590;DHT22;32313;48.722;9.362;2023-06-10T12:45:51;32.00;56.70
46590;DHT22;32313;48.722;9.362;2023-06-10T12:48:24;31.50;57.20
46590;DHT22;32313;48.722;9.362;2023-06-10T12:50:54;31.00;57.50
46590;DHT22;32313;48.722;9.362;2023-06-10T12:53:21;31.30;57.30
46590;DHT22;32313;48.722;9.362;2023-06-10T12:55:49;32.30;55.90
46590;DHT22;32313;48.722;9.362;2023-06-10T12:58:15;33.00;53.50
46590;DHT22;32313;48.722;9.362;2023-06-10T13:00:41;33.70;53.10
46590;DHT22;32313;48.722;9.362;2023-06-10T13:03:09;34.20;52.20
46590;DHT22;32313;48.722;9.362;2023-06-10T13:05:38;35.00;51.30
46590;DHT22;32313;48.722;9.362;2023-06-10T13:08:05;35.40;50.10
46590;DHT22;32313;48.722;9.362;2023-06-10T13:10:32;34.90;50.10
46590;DHT22;32313;48.722;9.362;2023-06-10T13:13:00;34.20;51.00
46590;DHT22;32313;48.722;9.362;2023-06-10T13:15:26;33.50;51.50
46590;DHT22;32313;48.722;9.362;2023-06-10T13:17:52;32.70;53.50
46590;DHT22;32313;48.722;9.362;2023-06-10T13:20:18;31.90;54.80
46590;DHT22;32313;48.722;9.362;2023-06-10T13:22:44;31.10;55.90
46590;DHT22;32313;48.722;9.362;2023-06-10T13:25:10;30.50;56.70
46590;DHT22;32313;48.722;9.362;2023-06-10T13:27:37;30.10;57.60
46590;DHT22;32313;48.722;9.362;2023-06-10T13:30:08;30.50;57.90
46590;DHT22;32313;48.722;9.362;2023-06-10T13:32:35;31.40;56.00
46590;DHT22;32313;48.722;9.362;2023-06-10T13:35:01;32.60;55.60
46590;DHT22;32313;48.722;9.362;2023-06-10T13:37:27;33.60;53.00
46590;DHT22;32313;48.722;9.362;2023-06-10T13:39:53;34.20;52.60
46590;DHT22;32313;48.722;9.362;2023-06-10T13:42:19;34.20;52.20
46590;DHT22;32313;48.722;9.362;2023-06-10T13:44:46;33.50;52.40
46590;DHT22;32313;48.722;9.362;2023-06-10T13:47:15;32.60;54.20
46590;DHT22;32313;48.722;9.362;2023-06-10T13:49:41;32.30;54.50
46590;DHT22;32313;48.722;9.362;2023-06-10T13:52:07;32.50;54.60
46590;DHT22;32313;48.722;9.362;2023-06-10T13:54:33;33.00;53.80
46590;DHT22;32313;48.722;9.362;2023-06-10T13:57:01;33.70;53.40
46590;DHT22;32313;48.722;9.362;2023-06-10T13:59:27;34.30;51.40
46590;DHT22;32313;48.722;9.362;2023-06-10T14:01:53;34.90;50.50
46590;DHT22;32313;48.722;9.362;2023-06-10T14:04:19;35.30;50.30
46590;DHT22;32313;48.722;9.362;2023-06-10T14:06:44;35.90;49.40
46590;DHT22;32313;48.722;9.362;2023-06-10T14:09:12;36.50;48.30
46590;DHT22;32313;48.722;9.362;2023-06-10T14:11:38;37.10;47.50
46590;DHT22;32313;48.722;9.362;2023-06-10T14:14:04;36.90;46.80
46590;DHT22;32313;48.722;9.362;2023-06-10T14:16:30;36.50;47.80
46590;DHT22;32313;48.722;9.362;2023-06-10T14:18:55;36.50;48.00
46590;DHT22;32313;48.722;9.362;2023-06-10T14:21:21;36.50;47.80
46590;DHT22;32313;48.722;9.362;2023-06-10T14:23:47;36.10;47.30
46590;DHT22;32313;48.722;9.362;2023-06-10T14:26:14;35.10;48.20
46590;DHT22;32313;48.722;9.362;2023-06-10T14:28:40;34.40;48.90
46590;DHT22;32313;48.722;9.362;2023-06-10T14:31:06;34.50;49.90
46590;DHT22;32313;48.722;9.362;2023-06-10T14:33:33;34.70;49.40
46590;DHT22;32313;48.722;9.362;2023-06-10T14:36:01;34.90;49.20
46590;DHT22;32313;48.722;9.362;2023-06-10T14:38:26;35.20;49.10
46590;DHT22;32313;48.722;9.362;2023-06-10T14:40:52;35.40;47.50
46590;DHT22;32313;48.722;9.362;2023-06-10T14:43:18;35.60;47.10
46590;DHT22;32313;48.722;9.362;2023-06-10T14:45:44;35.60;48.20
46590;DHT22;32313;48.722;9.362;2023-06-10T14:48:10;35.80;48.80
46590;DHT22;32313;48.722;9.362;2023-06-10T14:50:39;35.50;48.50
46590;DHT22;32313;48.722;9.362;2023-06-10T14:53:07;35.60;49.10
46590;DHT22;32313;48.722;9.362;2023-06-10T14:55:33;35.10;49.00
46590;DHT22;32313;48.722;9.362;2023-06-10T14:57:59;34.00;50.60
46590;DHT22;32313;48.722;9.362;2023-06-10T15:00:24;33.00;52.40
46590;DHT22;32313;48.722;9.362;2023-06-10T15:02:51;32.10;54.00
46590;DHT22;32313;48.722;9.362;2023-06-10T15:05:18;31.30;55.80
46590;DHT22;32313;48.722;9.362;2023-06-10T15:07:45;31.10;56.10
46590;DHT22;32313;48.722;9.362;2023-06-10T15:10:11;31.60;56.10
46590;DHT22;32313;48.722;9.362;2023-06-10T15:12:37;32.20;55.30
46590;DHT22;32313;48.722;9.362;2023-06-10T15:15:03;32.60;53.40
46590;DHT22;32313;48.722;9.362;2023-06-10T15:17:29;33.10;53.50
46590;DHT22;32313;48.722;9.362;2023-06-10T15:19:55;33.50;52.10
46590;DHT22;32313;48.722;9.362;2023-06-10T15:22:21;33.90;50.60
46590;DHT22;32313;48.722;9.362;2023-06-10T15:24:47;34.20;49.50
46590;DHT22;32313;48.722;9.362;2023-06-10T15:27:13;34.60;49.50
46590;DHT22;32313;48.722;9.362;2023-06-10T15:29:39;34.90;49.60
46590;DHT22;32313;48.722;9.362;2023-06-10T15:32:05;35.10;49.50
46590;DHT22;32313;48.722;9.362;2023-06-10T15:34:32;35.50;46.80
46590;DHT22;32313;48.722;9.362;2023-06-10T15:36:57;35.50;48.50
46590;DHT22;32313;48.722;9.362;2023-06-10T15:39:23;35.70;48.90
46590;DHT22;32313;48.722;9.362;2023-06-10T15:41:50;35.80;48.00
46590;DHT22;32313;48.722;9.362;2023-06-10T15:44:16;35.90;47.70
46590;DHT22;32313;48.722;9.362;2023-06-10T15:46:42;35.80;46.70
46590;DHT22;32313;48.722;9.362;2023-06-10T15:49:08;35.70;46.60